Terminal Aerodrome Forecast
Issued by NWS

Home | Current Version | Previous Version | Graphics & Text | Print | Product List | Glossary On
Versions: 1 2 3 4 5 6 7 8 9 10 11 12 13 14 15 16 17 18 19 20
000
FTUS43 KTOP 311100
TAFMHK
TAF
KMHK 311137Z 3112/0112 18006KT 4SM -RA BR SCT013 OVC025
      TEMPO 3113/3117 6SM BR OVC013
     FM311700 16008KT 3SM -RA BR OVC008
     FM010800 27005KT 3SM -RASN BR OVC004=

USA.gov is the U.S. government's official web portal to all federal, state and local government web resources and services.